Time;durP1;ratioP1;P1;durP2;ratioP2;P2;SDS_P1;SDS_P2;PMS_P1;PMS_P2;Temp;Humidity;BMP_temperature;BMP_pressure;BME280_temperature;BME280_humidity;BME280_pressure;Samples;Min_cycle;Max_cycle;Signal;HPM_P1;HPM_P2
2024/02/12 00:00:43;;;;;;;16.60;5.75;;;7.00;99.90;;;;;;5048345;28;20044;-74
2024/02/12 00:03:09;;;;;;;13.98;6.05;;;6.90;99.90;;;;;;5054318;28;20033;-73
2024/02/12 00:05:38;;;;;;;21.88;6.20;;;6.90;99.90;;;;;;5059165;28;20498;-74
2024/02/12 00:08:07;;;;;;;19.67;7.05;;;6.80;99.90;;;;;;5059577;28;20787;-75
2024/02/12 00:10:39;;;;;;;14.63;6.05;;;6.80;99.90;;;;;;5058885;28;20082;-73
2024/02/12 00:13:05;;;;;;;20.65;6.55;;;6.80;99.90;;;;;;5046230;28;20509;-74
2024/02/12 00:15:30;;;;;;;25.20;7.70;;;6.80;99.90;;;;;;5061666;28;20123;-72
2024/02/12 00:17:57;;;;;;;23.83;9.05;;;6.80;99.90;;;;;;5061472;28;20036;-74
2024/02/12 00:20:22;;;;;;;25.33;7.78;;;6.80;99.90;;;;;;5059151;28;20059;-74
2024/02/12 00:22:49;;;;;;;25.60;7.20;;;6.80;99.90;;;;;;5034876;28;20041;-74
2024/02/12 00:25:16;;;;;;;21.20;7.07;;;6.80;99.90;;;;;;5067649;28;20037;-75
2024/02/12 00:27:42;;;;;;;22.13;7.22;;;6.70;99.90;;;;;;5047321;28;20412;-73
2024/02/12 00:30:09;;;;;;;28.10;7.97;;;6.70;99.90;;;;;;5049470;28;20051;-75
2024/02/12 00:32:38;;;;;;;23.52;7.38;;;6.70;99.90;;;;;;5051144;28;20830;-75
2024/02/12 00:35:04;;;;;;;17.55;6.38;;;6.80;99.90;;;;;;5049590;28;20036;-73
2024/02/12 00:37:34;;;;;;;15.57;7.05;;;6.80;99.90;;;;;;5049690;28;20489;-72
2024/02/12 00:40:02;;;;;;;21.60;7.13;;;6.80;99.90;;;;;;5064401;28;20032;-74
2024/02/12 00:42:28;;;;;;;22.85;8.27;;;6.90;99.90;;;;;;5063951;28;20029;-73
2024/02/12 00:44:56;;;;;;;17.30;7.65;;;7.00;99.90;;;;;;5046664;28;20041;-73
2024/02/12 00:47:25;;;;;;;16.63;7.65;;;7.00;99.90;;;;;;5065824;28;20039;-73
2024/02/12 00:49:51;;;;;;;21.02;7.13;;;7.00;99.90;;;;;;5066516;28;20036;-73
2024/02/12 00:52:18;;;;;;;18.90;7.70;;;7.10;99.90;;;;;;5067660;28;20035;-74
2024/02/12 00:54:43;;;;;;;19.92;7.03;;;7.10;99.90;;;;;;5047140;28;20033;-72
2024/02/12 00:57:09;;;;;;;17.58;6.82;;;7.20;99.90;;;;;;5066193;28;20059;-72
2024/02/12 00:59:38;;;;;;;20.25;7.65;;;7.10;99.90;;;;;;5047644;28;20028;-73
2024/02/12 01:02:05;;;;;;;18.25;7.80;;;7.10;99.90;;;;;;5066816;28;20036;-73
2024/02/12 01:04:31;;;;;;;18.60;7.60;;;7.20;99.90;;;;;;5067141;28;20154;-73
2024/02/12 01:06:57;;;;;;;17.33;6.97;;;7.20;99.90;;;;;;5046387;28;20123;-74
2024/02/12 01:09:23;;;;;;;20.10;8.27;;;7.20;99.90;;;;;;5062509;28;20037;-73
2024/02/12 01:11:49;;;;;;;20.05;8.05;;;7.20;99.90;;;;;;5060635;28;20035;-73
2024/02/12 01:14:14;;;;;;;17.70;7.38;;;7.30;99.90;;;;;;5048243;28;20489;-74
2024/02/12 01:16:41;;;;;;;18.17;7.50;;;7.30;99.90;;;;;;5060771;28;20036;-72
2024/02/12 01:19:06;;;;;;;22.08;7.75;;;7.40;99.90;;;;;;5049279;28;20031;-72
2024/02/12 01:21:33;;;;;;;19.13;8.07;;;7.40;99.90;;;;;;5047294;28;20024;-73
2024/02/12 01:23:59;;;;;;;19.45;8.95;;;7.40;99.90;;;;;;5047567;28;20558;-73
2024/02/12 01:26:25;;;;;;;21.42;8.38;;;7.50;99.90;;;;;;5048829;28;20056;-73
2024/02/12 01:28:51;;;;;;;21.90;8.75;;;7.50;99.90;;;;;;5039798;28;20033;-73
2024/02/12 01:31:18;;;;;;;19.33;6.93;;;7.50;99.90;;;;;;5061623;28;20486;-72
2024/02/12 01:33:47;;;;;;;24.75;8.63;;;7.50;99.90;;;;;;5059766;28;20648;-73
2024/02/12 01:36:13;;;;;;;19.15;8.30;;;7.60;99.90;;;;;;5058886;28;20176;-73
2024/02/12 01:38:40;;;;;;;23.48;8.48;;;7.60;99.90;;;;;;5061667;28;20091;-73
2024/02/12 01:41:06;;;;;;;19.15;8.02;;;7.50;99.90;;;;;;5061184;28;20036;-74
2024/02/12 01:43:34;;;;;;;19.58;8.48;;;7.60;99.90;;;;;;5045248;28;20036;-72
2024/02/12 01:46:00;;;;;;;17.70;7.18;;;7.60;99.90;;;;;;5059041;28;20114;-74
2024/02/12 01:48:29;;;;;;;21.25;6.78;;;7.50;99.90;;;;;;5062630;28;20515;-72
2024/02/12 01:50:56;;;;;;;17.23;7.85;;;7.50;99.90;;;;;;5055312;28;20186;-72
2024/02/12 01:53:22;;;;;;;17.45;6.97;;;7.50;99.90;;;;;;5045630;28;20028;-73
2024/02/12 01:55:49;;;;;;;27.88;8.57;;;7.40;99.90;;;;;;5061694;28;20068;-73
2024/02/12 01:58:16;;;;;;;26.25;7.75;;;7.40;99.90;;;;;;5047690;28;20033;-74
2024/02/12 02:00:48;;;;;;;18.33;7.47;;;7.40;99.90;;;;;;5059678;28;20051;-73
2024/02/12 02:03:18;;;;;;;24.15;6.85;;;7.30;99.90;;;;;;5047355;28;20087;-74
2024/02/12 02:05:47;;;;;;;16.17;7.55;;;7.30;99.90;;;;;;5058269;28;20025;-73
2024/02/12 02:08:13;;;;;;;17.40;7.47;;;7.20;99.90;;;;;;5059513;28;20044;-73
2024/02/12 02:10:38;;;;;;;15.50;7.22;;;7.20;99.90;;;;;;5044129;28;20116;-73
2024/02/12 02:13:06;;;;;;;20.25;8.27;;;7.10;99.90;;;;;;5063531;28;20078;-74
2024/02/12 02:15:32;;;;;;;19.20;7.68;;;7.10;99.90;;;;;;5047693;28;20033;-74
2024/02/12 02:17:58;;;;;;;19.90;7.82;;;7.00;99.90;;;;;;5046712;28;20036;-74
2024/02/12 02:20:25;;;;;;;25.48;6.95;;;7.00;99.90;;;;;;5048621;28;20111;-72
2024/02/12 02:22:52;;;;;;;21.40;7.63;;;7.00;99.90;;;;;;5056811;28;20029;-74
2024/02/12 02:25:20;;;;;;;22.92;8.07;;;7.00;99.90;;;;;;5043416;28;20509;-74
2024/02/12 02:27:46;;;;;;;26.08;9.10;;;7.10;99.90;;;;;;5061979;28;20048;-72
2024/02/12 02:30:11;;;;;;;18.58;7.63;;;7.10;99.90;;;;;;5059644;28;20075;-73
2024/02/12 02:32:39;;;;;;;23.17;8.60;;;7.10;99.90;;;;;;5047128;28;20042;-72
2024/02/12 02:35:05;;;;;;;20.67;8.05;;;7.10;99.90;;;;;;5042980;28;20074;-74
2024/02/12 02:37:31;;;;;;;25.40;8.25;;;7.10;99.90;;;;;;5064131;28;20037;-72
2024/02/12 02:39:57;;;;;;;23.98;7.57;;;7.10;99.90;;;;;;5061318;28;20109;-72
2024/02/12 02:42:22;;;;;;;19.00;7.65;;;7.10;99.90;;;;;;5064687;28;20123;-73
2024/02/12 02:44:48;;;;;;;21.70;8.60;;;7.10;99.90;;;;;;5065898;28;20029;-73
2024/02/12 02:47:14;;;;;;;21.08;8.13;;;7.10;99.90;;;;;;5050805;28;20028;-74
2024/02/12 02:49:41;;;;;;;16.52;7.22;;;7.10;99.90;;;;;;5066420;28;20094;-75
2024/02/12 02:52:07;;;;;;;20.23;8.07;;;7.10;99.90;;;;;;5061079;28;20036;-74
2024/02/12 02:54:33;;;;;;;24.63;8.20;;;7.10;99.90;;;;;;5062111;28;20036;-73
2024/02/12 02:56:59;;;;;;;19.10;7.53;;;7.10;99.90;;;;;;5044832;28;20407;-73
2024/02/12 02:59:25;;;;;;;26.33;8.10;;;7.10;99.90;;;;;;5052490;28;20028;-71
2024/02/12 03:01:51;;;;;;;19.63;9.25;;;7.10;99.90;;;;;;5067580;28;20043;-74
2024/02/12 03:04:16;;;;;;;22.15;8.95;;;7.10;99.90;;;;;;5051447;28;20116;-71
2024/02/12 03:06:42;;;;;;;20.05;8.45;;;7.00;99.90;;;;;;5064750;28;20032;-72
2024/02/12 03:09:09;;;;;;;27.08;8.85;;;6.90;99.90;;;;;;5067402;28;20067;-72
2024/02/12 03:11:37;;;;;;;18.92;7.53;;;6.90;99.90;;;;;;5049537;28;20036;-73
2024/02/12 03:14:03;;;;;;;21.70;8.57;;;6.90;99.90;;;;;;5050778;28;20086;-75
2024/02/12 03:16:28;;;;;;;24.35;8.50;;;6.80;99.90;;;;;;5048775;28;20029;-73
2024/02/12 03:18:55;;;;;;;21.08;8.52;;;6.80;99.90;;;;;;5066362;28;20515;-71
2024/02/12 03:21:22;;;;;;;23.65;9.10;;;6.70;99.90;;;;;;5050916;28;20032;-74
2024/02/12 03:23:48;;;;;;;25.15;8.43;;;6.70;99.90;;;;;;5059428;28;20032;-72
2024/02/12 03:26:15;;;;;;;25.25;8.75;;;6.60;99.90;;;;;;5046754;28;20493;-74
2024/02/12 03:28:41;;;;;;;28.83;9.23;;;6.60;99.90;;;;;;5050096;28;20032;-71
2024/02/12 03:31:07;;;;;;;22.00;9.43;;;6.60;99.90;;;;;;5064106;28;20635;-74
2024/02/12 03:33:33;;;;;;;23.25;8.70;;;6.60;99.90;;;;;;5067744;28;20104;-72
2024/02/12 03:35:59;;;;;;;28.17;9.90;;;6.70;99.90;;;;;;5050047;28;20040;-75
2024/02/12 03:38:24;;;;;;;25.35;9.05;;;6.60;99.90;;;;;;5068318;28;20420;-73
2024/02/12 03:40:53;;;;;;;22.17;8.73;;;6.60;99.90;;;;;;5048023;28;20084;-75
2024/02/12 03:43:22;;;;;;;24.65;8.73;;;6.60;99.90;;;;;;5050493;28;20057;-73
2024/02/12 03:45:48;;;;;;;30.60;9.38;;;6.60;99.90;;;;;;5064489;28;20029;-73
2024/02/12 04:01:56;;;;;;;23.00;9.50;;;6.70;99.90;;;;;;5036112;28;20040;-72
2024/02/12 04:04:21;;;;;;;24.40;10.30;;;6.60;99.90;;;;;;5046555;28;20036;-73
2024/02/12 04:06:47;;;;;;;26.80;9.27;;;6.60;99.90;;;;;;5038645;28;20030;-72
2024/02/12 04:09:12;;;;;;;24.27;8.75;;;6.50;99.90;;;;;;5046290;28;20025;-74
2024/02/12 04:11:42;;;;;;;24.90;8.75;;;6.50;99.90;;;;;;5042531;28;20021;-73
2024/02/12 04:14:09;;;;;;;26.98;9.18;;;6.40;99.90;;;;;;5041628;28;20044;-74
2024/02/12 04:16:36;;;;;;;22.40;8.80;;;6.40;99.90;;;;;;5045592;28;20497;-73
2024/02/12 04:19:03;;;;;;;36.03;10.60;;;6.40;99.90;;;;;;5046587;28;20040;-75
2024/02/12 04:21:31;;;;;;;22.48;8.52;;;6.30;99.90;;;;;;5045680;28;20108;-73
2024/02/12 04:23:57;;;;;;;28.38;9.75;;;6.30;99.90;;;;;;5046221;28;20032;-73
2024/02/12 04:26:23;;;;;;;27.40;8.85;;;6.40;99.90;;;;;;5047362;28;20029;-74
2024/02/12 04:28:49;;;;;;;24.30;9.63;;;6.40;99.90;;;;;;5041918;28;20041;-72
2024/02/12 04:31:14;;;;;;;26.10;9.55;;;6.50;99.90;;;;;;5038010;28;20073;-74
2024/02/12 04:33:41;;;;;;;23.98;9.13;;;6.50;99.90;;;;;;5046051;28;20444;-72
2024/02/12 04:36:10;;;;;;;27.67;8.32;;;6.50;99.90;;;;;;5040663;28;20449;-74
2024/02/12 04:38:35;;;;;;;28.00;8.20;;;6.60;99.90;;;;;;5044125;28;20060;-73
2024/02/12 04:41:01;;;;;;;25.55;9.10;;;6.60;99.90;;;;;;5045671;28;20029;-74
2024/02/12 04:43:27;;;;;;;23.98;9.38;;;6.60;99.90;;;;;;5046454;28;20517;-74
2024/02/12 04:45:52;;;;;;;28.08;9.32;;;6.70;99.90;;;;;;5041975;28;20116;-74
2024/02/12 04:48:18;;;;;;;27.30;10.10;;;6.70;99.90;;;;;;5044289;28;20044;-73
2024/02/12 04:50:46;;;;;;;25.45;9.38;;;6.70;99.90;;;;;;5043259;28;20045;-73
2024/02/12 04:53:12;;;;;;;21.40;8.32;;;6.80;99.90;;;;;;5040360;28;20037;-73
2024/02/12 04:55:37;;;;;;;21.50;8.38;;;6.80;99.90;;;;;;5042698;28;20128;-72
2024/02/12 04:58:04;;;;;;;26.33;8.82;;;6.80;99.90;;;;;;5042253;28;20460;-72
2024/02/12 05:00:30;;;;;;;25.17;8.98;;;6.90;99.90;;;;;;5044421;28;20037;-74
2024/02/12 05:02:58;;;;;;;24.40;8.40;;;6.90;99.90;;;;;;5041580;28;20033;-72
2024/02/12 05:05:24;;;;;;;23.48;8.18;;;6.90;99.90;;;;;;5040736;28;20736;-72
2024/02/12 05:07:49;;;;;;;29.75;9.27;;;6.90;99.90;;;;;;5040591;28;20087;-72
2024/02/12 05:10:15;;;;;;;22.13;8.32;;;6.90;99.90;;;;;;5037906;28;20035;-74
2024/02/12 05:12:41;;;;;;;22.85;8.93;;;7.00;99.90;;;;;;5035914;28;20043;-73
2024/02/12 05:15:09;;;;;;;29.15;9.65;;;7.00;99.90;;;;;;5037896;28;20040;-74
2024/02/12 05:18:06;;;;;;;26.20;9.38;;;7.00;99.90;;;;;;5039867;28;20791;-75
2024/02/12 05:23:21;;;;;;;28.00;8.93;;;7.00;99.90;;;;;;5033281;28;20048;-75
2024/02/12 05:25:47;;;;;;;27.52;8.35;;;7.00;99.90;;;;;;5040673;28;20100;-73
2024/02/12 05:28:12;;;;;;;23.23;7.93;;;7.10;99.90;;;;;;5036817;28;20040;-73
2024/02/12 05:30:38;;;;;;;20.92;8.43;;;7.10;99.90;;;;;;5043881;28;20037;-75
2024/02/12 05:33:06;;;;;;;24.42;8.50;;;7.10;99.90;;;;;;5042093;28;20033;-73
2024/02/12 05:35:32;;;;;;;29.05;10.20;;;7.10;99.90;;;;;;5040681;28;20049;-73
2024/02/12 05:37:58;;;;;;;25.85;8.57;;;7.10;99.90;;;;;;5036821;28;20498;-74
2024/02/12 05:40:23;;;;;;;23.38;7.65;;;7.10;99.90;;;;;;5041710;28;20035;-75
2024/02/12 05:42:49;;;;;;;24.00;8.20;;;7.10;99.90;;;;;;5036992;28;20087;-72
2024/02/12 05:45:14;;;;;;;28.02;9.57;;;7.10;99.90;;;;;;5034033;28;21565;-74
2024/02/12 05:47:41;;;;;;;30.25;10.63;;;7.10;99.90;;;;;;5037078;28;20056;-74
2024/02/12 05:50:07;;;;;;;25.05;9.23;;;7.10;99.90;;;;;;5032345;28;20091;-73
2024/02/12 05:52:33;;;;;;;26.20;8.95;;;7.10;99.90;;;;;;5035747;28;20049;-71
2024/02/12 05:54:59;;;;;;;20.70;8.52;;;7.20;99.90;;;;;;5031673;28;20044;-74
2024/02/12 05:57:25;;;;;;;18.83;8.15;;;7.20;99.90;;;;;;5037290;28;20142;-74
2024/02/12 05:59:50;;;;;;;26.25;9.02;;;7.20;99.90;;;;;;5031611;28;20042;-76
2024/02/12 06:02:16;;;;;;;29.70;8.48;;;7.20;99.90;;;;;;5034878;28;20044;-73
2024/02/12 06:04:42;;;;;;;24.23;8.90;;;7.10;99.90;;;;;;5032664;28;20031;-73
2024/02/12 06:07:08;;;;;;;21.63;8.48;;;7.10;99.90;;;;;;5037303;28;20401;-73
2024/02/12 06:09:36;;;;;;;22.25;8.60;;;7.10;99.90;;;;;;5043956;28;20036;-73
2024/02/12 06:12:02;;;;;;;26.90;9.65;;;7.10;99.90;;;;;;5051263;28;20039;-74
2024/02/12 06:14:28;;;;;;;24.23;9.00;;;7.10;99.90;;;;;;5058694;28;20048;-75
2024/02/12 06:16:54;;;;;;;24.67;8.82;;;7.00;99.90;;;;;;5056932;28;20059;-72
2024/02/12 06:19:20;;;;;;;23.95;9.20;;;7.00;99.90;;;;;;5039821;28;20033;-73
2024/02/12 06:21:45;;;;;;;23.05;8.23;;;7.00;99.90;;;;;;5039035;28;20114;-73
2024/02/12 06:24:11;;;;;;;27.20;8.48;;;6.90;99.90;;;;;;5045158;28;20082;-74
2024/02/12 06:26:38;;;;;;;23.50;7.38;;;6.90;99.90;;;;;;5058718;28;20679;-73
2024/02/12 06:29:04;;;;;;;25.98;8.45;;;6.90;99.90;;;;;;5058102;28;20120;-73
2024/02/12 06:31:31;;;;;;;22.67;8.25;;;6.90;99.90;;;;;;5037588;28;20458;-74
2024/02/12 06:33:57;;;;;;;21.58;7.72;;;6.90;99.90;;;;;;5029700;28;20032;-73
2024/02/12 06:36:23;;;;;;;18.35;7.00;;;7.00;99.90;;;;;;5041494;28;20082;-73
2024/02/12 06:38:48;;;;;;;19.65;7.82;;;6.90;99.90;;;;;;5028921;28;20025;-72
2024/02/12 06:41:14;;;;;;;18.98;7.00;;;6.90;99.90;;;;;;5047664;28;20051;-73
2024/02/12 06:43:41;;;;;;;20.17;7.57;;;6.90;99.90;;;;;;5040223;28;20037;-72
2024/02/12 06:46:06;;;;;;;19.67;6.82;;;6.80;99.90;;;;;;5021653;28;20453;-74
2024/02/12 06:48:32;;;;;;;20.40;7.03;;;6.80;99.90;;;;;;5055213;28;20029;-73
2024/02/12 06:51:08;;;;;;;21.42;7.00;;;6.70;99.90;;;;;;5059892;28;20033;-73
2024/02/12 06:53:34;;;;;;;16.65;7.78;;;6.70;99.90;;;;;;5070568;28;20040;-75
2024/02/12 06:56:05;;;;;;;19.13;7.68;;;6.60;99.90;;;;;;5061045;28;20033;-73
2024/02/12 06:58:31;;;;;;;21.70;6.95;;;6.60;99.90;;;;;;5049347;28;20646;-73
2024/02/12 07:00:57;;;;;;;17.92;6.72;;;6.50;99.90;;;;;;5071980;28;20032;-72
2024/02/12 07:03:23;;;;;;;15.82;6.57;;;6.50;99.90;;;;;;5044667;28;20043;-73
2024/02/12 07:05:52;;;;;;;13.75;6.40;;;6.50;99.90;;;;;;5072830;28;20043;-73
2024/02/12 07:08:18;;;;;;;16.80;6.80;;;6.40;99.90;;;;;;5049277;28;20067;-73
2024/02/12 07:10:44;;;;;;;18.33;7.85;;;6.40;99.90;;;;;;5065219;28;21053;-73
2024/02/12 07:13:10;;;;;;;16.25;6.93;;;6.30;99.90;;;;;;5072569;28;20589;-74
2024/02/12 07:15:36;;;;;;;24.42;7.35;;;6.30;99.90;;;;;;5033267;28;20127;-76
2024/02/12 07:18:02;;;;;;;17.17;6.50;;;6.30;99.90;;;;;;5045947;28;20037;-74
2024/02/12 07:20:28;;;;;;;19.17;5.97;;;6.30;99.90;;;;;;5045096;28;20033;-73
2024/02/12 07:22:53;;;;;;;20.80;6.53;;;6.30;99.90;;;;;;5032759;28;20055;-74
2024/02/12 07:25:19;;;;;;;18.02;5.95;;;6.30;99.90;;;;;;5023154;28;20033;-75
2024/02/12 07:27:44;;;;;;;17.73;6.28;;;6.30;99.90;;;;;;5046684;28;20084;-73
2024/02/12 07:30:10;;;;;;;17.63;6.18;;;6.30;99.90;;;;;;5028923;28;20040;-73
2024/02/12 07:32:38;;;;;;;15.68;5.25;;;6.30;99.90;;;;;;5030470;28;20725;-74
2024/02/12 07:35:08;;;;;;;15.68;5.70;;;6.20;99.90;;;;;;5045227;28;20082;-74
2024/02/12 07:37:41;;;;;;;18.80;4.80;;;6.20;99.90;;;;;;5040164;28;20040;-73
2024/02/12 07:40:10;;;;;;;15.40;5.53;;;6.30;99.90;;;;;;5025963;28;20120;-73
2024/02/12 07:42:38;;;;;;;18.33;6.80;;;6.30;99.90;;;;;;5023504;28;20037;-72
2024/02/12 07:45:07;;;;;;;13.35;5.93;;;6.30;99.90;;;;;;5044226;28;20445;-73
2024/02/12 07:47:35;;;;;;;15.18;5.72;;;6.40;99.90;;;;;;5031772;28;20520;-73
2024/02/12 07:50:01;;;;;;;15.23;5.13;;;6.40;99.90;;;;;;5039838;28;20059;-73
2024/02/12 07:52:27;;;;;;;13.80;5.60;;;6.40;99.90;;;;;;5035556;28;20428;-72
2024/02/12 07:54:53;;;;;;;20.20;6.05;;;6.40;99.90;;;;;;5037132;28;20048;-73
2024/02/12 07:57:18;;;;;;;16.17;5.53;;;6.40;99.90;;;;;;5044721;28;20048;-74
2024/02/12 07:59:44;;;;;;;18.55;5.47;;;6.40;99.90;;;;;;5038332;28;20037;-75
2024/02/12 08:02:10;;;;;;;15.98;5.30;;;6.40;99.90;;;;;;5032400;28;20040;-74
2024/02/12 08:04:36;;;;;;;16.17;6.00;;;6.40;99.90;;;;;;5038500;28;20089;-74
2024/02/12 08:07:04;;;;;;;11.48;5.15;;;6.40;99.90;;;;;;5032750;28;24110;-73
2024/02/12 08:09:30;;;;;;;19.58;6.95;;;6.40;99.90;;;;;;5038741;28;20039;-75
2024/02/12 08:11:56;;;;;;;14.18;5.57;;;6.40;99.90;;;;;;5033640;28;20053;-73
2024/02/12 08:14:22;;;;;;;13.60;5.90;;;6.40;99.90;;;;;;5033905;28;20757;-73
2024/02/12 08:16:48;;;;;;;13.60;5.47;;;6.40;99.90;;;;;;5037721;28;20021;-75
2024/02/12 08:19:13;;;;;;;17.40;6.22;;;6.50;99.90;;;;;;5035113;28;20524;-74
2024/02/12 08:21:39;;;;;;;17.42;5.60;;;6.50;99.90;;;;;;5034685;28;20129;-73
2024/02/12 08:24:04;;;;;;;16.60;6.60;;;6.50;99.90;;;;;;5033768;28;20041;-74
2024/02/12 08:26:30;;;;;;;19.80;6.70;;;6.60;99.90;;;;;;5040377;28;20025;-75
2024/02/12 08:28:58;;;;;;;15.77;5.75;;;6.60;99.90;;;;;;5033267;28;20040;-74
2024/02/12 08:31:23;;;;;;;15.15;6.72;;;6.70;99.90;;;;;;5037348;28;20029;-75
2024/02/12 08:33:49;;;;;;;12.98;5.93;;;6.80;99.90;;;;;;5039597;28;20541;-73
2024/02/12 08:36:16;;;;;;;17.85;7.30;;;6.90;99.90;;;;;;5032035;28;20045;-73
2024/02/12 08:38:42;;;;;;;14.63;5.80;;;7.00;99.90;;;;;;5033207;28;20044;-76
2024/02/12 08:41:07;;;;;;;20.35;7.03;;;7.20;99.90;;;;;;5036298;28;20038;-73
2024/02/12 08:43:33;;;;;;;15.18;6.95;;;7.20;99.90;;;;;;5034947;28;20029;-73
2024/02/12 08:45:59;;;;;;;15.93;6.78;;;7.20;99.90;;;;;;5030108;28;20087;-74
2024/02/12 08:48:26;;;;;;;14.88;6.25;;;7.20;99.90;;;;;;5033650;28;20068;-74
2024/02/12 08:50:51;;;;;;;18.48;6.53;;;7.20;99.90;;;;;;5032388;28;20035;-73
2024/02/12 08:53:17;;;;;;;21.08;6.75;;;7.30;99.90;;;;;;5034006;28;20033;-72
2024/02/12 08:55:42;;;;;;;15.07;6.57;;;7.40;99.90;;;;;;5035182;28;20051;-74
2024/02/12 08:58:10;;;;;;;19.33;6.90;;;7.50;99.90;;;;;;5027858;28;20061;-73
2024/02/12 09:00:36;;;;;;;15.43;6.70;;;7.70;99.90;;;;;;5030166;28;20133;-72
2024/02/12 09:03:04;;;;;;;17.08;5.95;;;7.80;99.90;;;;;;5037718;28;20112;-72
2024/02/12 09:05:30;;;;;;;18.88;7.03;;;7.80;99.90;;;;;;5037537;28;20138;-75
2024/02/12 09:07:55;;;;;;;17.05;5.90;;;7.80;99.90;;;;;;5033769;28;20446;-73
2024/02/12 09:10:21;;;;;;;16.52;6.50;;;8.00;99.90;;;;;;5035367;28;20037;-73
2024/02/12 09:12:46;;;;;;;19.67;6.72;;;8.20;99.90;;;;;;5031319;28;20037;-72
2024/02/12 09:15:14;;;;;;;16.67;6.97;;;8.30;99.90;;;;;;5032913;28;20130;-73
2024/02/12 09:17:39;;;;;;;18.42;6.10;;;8.50;99.90;;;;;;5031152;28;20238;-75
2024/02/12 09:20:06;;;;;;;14.88;5.57;;;8.60;99.90;;;;;;5034286;28;20619;-76
2024/02/12 09:22:33;;;;;;;12.65;5.07;;;8.70;99.90;;;;;;5033421;28;20138;-73
2024/02/12 09:25:00;;;;;;;12.98;5.95;;;8.70;99.90;;;;;;5031363;28;20057;-74
2024/02/12 09:27:28;;;;;;;13.48;6.65;;;8.80;99.90;;;;;;5034255;28;20037;-70
2024/02/12 09:29:54;;;;;;;14.20;5.28;;;8.80;99.90;;;;;;5032305;28;20040;-75
2024/02/12 09:32:19;;;;;;;11.50;4.90;;;8.80;99.90;;;;;;5029900;28;20041;-72
2024/02/12 09:34:45;;;;;;;11.23;4.97;;;8.90;99.90;;;;;;5030095;28;20045;-73
2024/02/12 09:37:11;;;;;;;14.43;4.43;;;8.90;99.90;;;;;;5035353;28;20048;-74
2024/02/12 09:39:36;;;;;;;19.45;5.82;;;9.00;99.90;;;;;;5036582;28;20025;-73
2024/02/12 09:42:03;;;;;;;14.05;5.00;;;9.00;99.90;;;;;;5033239;28;20026;-73
2024/02/12 09:44:29;;;;;;;20.13;5.13;;;9.10;99.90;;;;;;5038335;28;20036;-73
2024/02/12 09:47:04;;;;;;;11.20;4.07;;;9.10;99.90;;;;;;5034303;28;20033;-73
2024/02/12 09:49:31;;;;;;;18.85;5.13;;;9.30;99.90;;;;;;5031463;28;20032;-71
2024/02/12 09:51:58;;;;;;;9.65;4.28;;;9.50;99.90;;;;;;5032896;28;20190;-73
2024/02/12 09:54:23;;;;;;;7.95;3.15;;;9.70;99.90;;;;;;5035871;28;20059;-76
2024/02/12 09:56:50;;;;;;;10.73;3.25;;;9.90;99.90;;;;;;5033236;28;20704;-72
2024/02/12 09:59:16;;;;;;;13.80;3.20;;;10.00;99.90;;;;;;5034096;28;20034;-74
2024/02/12 10:01:42;;;;;;;9.30;3.60;;;10.00;99.90;;;;;;5033340;28;20037;-73
2024/02/12 10:04:07;;;;;;;13.98;3.78;;;10.10;99.90;;;;;;5033832;28;20814;-73
2024/02/12 10:06:33;;;;;;;7.72;2.95;;;10.10;99.90;;;;;;5035252;28;20059;-71
2024/02/12 10:09:06;;;;;;;11.63;3.50;;;10.20;99.90;;;;;;5038527;28;20489;-74
2024/02/12 10:11:31;;;;;;;10.75;2.75;;;10.20;99.90;;;;;;5035890;28;20438;-73
2024/02/12 10:14:00;;;;;;;11.60;3.78;;;10.20;99.90;;;;;;5033914;28;20172;-72
2024/02/12 10:16:26;;;;;;;8.13;2.80;;;10.30;99.90;;;;;;5034247;28;20067;-71
2024/02/12 10:18:52;;;;;;;8.88;2.50;;;10.30;99.90;;;;;;5034772;28;20152;-72
2024/02/12 10:21:22;;;;;;;8.77;2.60;;;10.20;99.90;;;;;;5031706;28;20111;-73
2024/02/12 10:23:47;;;;;;;8.03;2.90;;;10.20;99.90;;;;;;5033113;28;20162;-73
2024/02/12 10:26:15;;;;;;;8.40;2.88;;;10.20;99.90;;;;;;5034898;28;20056;-73
2024/02/12 10:28:40;;;;;;;5.47;2.40;;;10.20;99.90;;;;;;5030568;28;20088;-72
2024/02/12 10:31:06;;;;;;;7.07;2.33;;;10.10;99.90;;;;;;5031004;28;20454;-72
2024/02/12 10:33:33;;;;;;;9.30;2.70;;;10.20;99.90;;;;;;5035648;28;20502;-73
2024/02/12 10:36:03;;;;;;;7.32;2.00;;;10.30;99.90;;;;;;5032404;28;20040;-73
2024/02/12 10:38:34;;;;;;;7.43;1.63;;;10.30;99.90;;;;;;5035266;28;20076;-73
2024/02/12 10:41:07;;;;;;;4.90;1.95;;;10.40;99.90;;;;;;5028151;28;20025;-71
2024/02/12 10:43:32;;;;;;;4.90;1.80;;;10.40;99.90;;;;;;5026944;28;20124;-72
2024/02/12 10:46:00;;;;;;;6.63;1.50;;;10.40;99.90;;;;;;5022796;28;20132;-73
2024/02/12 10:48:30;;;;;;;4.30;2.10;;;10.60;99.90;;;;;;5033666;28;20131;-73
2024/02/12 10:50:55;;;;;;;6.63;1.45;;;10.60;99.90;;;;;;5040409;28;20124;-72
2024/02/12 10:53:23;;;;;;;12.55;1.58;;;10.50;99.90;;;;;;5042203;28;20116;-72
2024/02/12 10:55:49;;;;;;;5.32;1.65;;;10.60;99.90;;;;;;5044367;28;20040;-73
2024/02/12 10:58:16;;;;;;;3.10;1.25;;;10.60;99.90;;;;;;5022613;28;20045;-74
2024/02/12 11:00:57;;;;;;;6.40;1.52;;;10.60;99.90;;;;;;5040743;28;20031;-75
2024/02/12 11:03:35;;;;;;;5.95;1.90;;;10.60;99.90;;;;;;5046200;28;20040;-72
2024/02/12 11:06:04;;;;;;;4.40;1.33;;;10.60;99.90;;;;;;5024229;28;20047;-72
2024/02/12 11:08:36;;;;;;;5.93;1.90;;;10.50;99.90;;;;;;5042206;28;20036;-71
2024/02/12 11:11:03;;;;;;;5.20;1.63;;;10.40;99.90;;;;;;5037045;28;20052;-72
2024/02/12 11:13:39;;;;;;;10.95;2.33;;;10.40;99.90;;;;;;5037616;28;20044;-70
2024/02/12 11:16:06;;;;;;;7.63;1.40;;;10.50;99.90;;;;;;5036227;28;20078;-72
2024/02/12 11:18:35;;;;;;;3.45;1.00;;;11.00;99.90;;;;;;5033112;28;20498;-72
2024/02/12 11:21:01;;;;;;;5.20;1.08;;;11.60;99.90;;;;;;5039213;28;20033;-74
2024/02/12 11:23:28;;;;;;;9.60;1.63;;;11.80;99.90;;;;;;5037734;28;20124;-72
2024/02/12 11:26:02;;;;;;;4.78;1.10;;;11.70;99.90;;;;;;5040505;28;20529;-73
2024/02/12 11:28:30;;;;;;;4.53;0.80;;;11.50;99.90;;;;;;5038533;28;20033;-71
2024/02/12 11:30:56;;;;;;;3.30;1.08;;;11.30;99.90;;;;;;5036649;28;20433;-71
2024/02/12 11:33:25;;;;;;;2.65;1.05;;;11.30;99.90;;;;;;5036768;28;20045;-73
2024/02/12 11:36:06;;;;;;;3.00;1.00;;;11.20;99.90;;;;;;5034090;28;20037;-72
2024/02/12 11:38:34;;;;;;;5.13;1.25;;;11.20;99.90;;;;;;5038350;28;20099;-75
2024/02/12 11:41:00;;;;;;;4.47;1.17;;;11.20;99.90;;;;;;5037169;28;20444;-74
2024/02/12 11:43:26;;;;;;;5.05;0.85;;;11.30;99.90;;;;;;5035101;28;20033;-70
2024/02/12 11:46:01;;;;;;;2.88;0.85;;;11.30;99.90;;;;;;5033120;28;20040;-73
2024/02/12 11:48:28;;;;;;;3.35;1.23;;;11.30;99.90;;;;;;5036843;28;20600;-72
2024/02/12 11:50:57;;;;;;;4.22;0.88;;;11.30;99.90;;;;;;5032300;28;20123;-73
2024/02/12 11:53:25;;;;;;;5.30;1.10;;;11.20;99.90;;;;;;5032528;28;20045;-73
2024/02/12 11:55:51;;;;;;;6.50;1.05;;;11.00;99.90;;;;;;5035413;28;20033;-71
2024/02/12 11:58:17;;;;;;;3.45;1.05;;;10.80;99.90;;;;;;5040705;28;20603;-72
2024/02/12 12:00:44;;;;;;;5.82;1.85;;;10.70;99.90;;;;;;5034785;28;20033;-72
2024/02/12 12:03:10;;;;;;;7.57;1.15;;;10.70;99.90;;;;;;5033031;28;20450;-73
2024/02/12 12:05:38;;;;;;;4.93;1.38;;;10.80;99.90;;;;;;5032815;28;20035;-72
2024/02/12 12:08:06;;;;;;;3.42;0.80;;;10.90;99.90;;;;;;5034163;28;20088;-74
2024/02/12 12:10:34;;;;;;;2.65;0.70;;;11.10;99.90;;;;;;5024280;28;20044;-71
2024/02/12 12:13:01;;;;;;;3.85;1.20;;;11.30;99.90;;;;;;5031233;28;20695;-72
2024/02/12 12:15:28;;;;;;;3.42;0.77;;;11.40;99.90;;;;;;5034130;28;20083;-72
2024/02/12 12:17:54;;;;;;;7.15;0.50;;;11.60;99.90;;;;;;5025943;28;20041;-74
2024/02/12 12:20:20;;;;;;;1.20;0.60;;;11.60;99.90;;;;;;5033437;28;20056;-72
2024/02/12 12:22:47;;;;;;;2.33;1.02;;;11.50;99.90;;;;;;5033514;28;20383;-73
2024/02/12 12:25:13;;;;;;;8.23;0.60;;;11.30;99.90;;;;;;5035505;28;20029;-72
2024/02/12 12:27:39;;;;;;;1.65;0.57;;;11.20;99.90;;;;;;5034314;28;20065;-73
2024/02/12 12:30:16;;;;;;;4.30;0.70;;;11.00;99.90;;;;;;5027921;28;20071;-74
2024/02/12 12:32:43;;;;;;;3.75;0.88;;;10.80;99.90;;;;;;5032305;28;20032;-74
2024/02/12 12:35:09;;;;;;;5.78;0.57;;;10.70;99.90;;;;;;5034610;28;20056;-74
2024/02/12 12:37:36;;;;;;;2.38;1.30;;;10.60;99.90;;;;;;5030373;28;20037;-73
2024/02/12 12:40:08;;;;;;;2.67;0.73;;;10.50;99.90;;;;;;5030325;28;20033;-71
2024/02/12 12:42:35;;;;;;;4.78;0.68;;;10.40;99.90;;;;;;5032410;28;20494;-73
2024/02/12 12:45:01;;;;;;;5.93;1.10;;;10.50;99.90;;;;;;5029712;28;20041;-72
2024/02/12 12:47:26;;;;;;;2.10;0.55;;;10.50;99.90;;;;;;5031855;28;20378;-72
2024/02/12 12:49:56;;;;;;;4.22;0.50;;;10.40;99.90;;;;;;5030325;28;20036;-73
2024/02/12 12:52:22;;;;;;;8.43;0.63;;;10.40;99.90;;;;;;5034588;28;20441;-73
2024/02/12 12:54:48;;;;;;;1.38;0.60;;;10.30;99.90;;;;;;5029151;28;20029;-74
2024/02/12 12:57:14;;;;;;;1.42;0.40;;;10.20;99.90;;;;;;5031873;28;20141;-73
2024/02/12 12:59:40;;;;;;;4.05;0.68;;;10.20;99.90;;;;;;5025218;28;20511;-73